Penparcau, United Kingdom
Current Conditions -  °F | °C
As of 6:50 AM on Saturday 29 Nov 2014 (Local Time) from EGOP Reporting Station
Few Clouds Few Clouds  
Wind Chill: 46°   Ceiling: Unl
Heat Index: 48°   Visibility: 5mi
Dew Point: 48°   Wind: 6mph
Humidity: 100%   Direction: 80°E
Pressure: 29.77"   Gusts: NA
Location:  52.4°N, 4.07°W
Report Text: EGOP 290650Z AUTO 08005KT 8000 // FEW022/// 09/09 Q1008
Loading
Personal Weather Stations






























Interactive Weather Map New forecast layout! Learn more

10-Day Weather Forecast

Advertisements
Track Severe Weather on mobile